sensor_id;sensor_type;location;lat;lon;timestamp;pressure;altitude;pressure_sealevel;temperature;humidity
1480;BME280;732;51.698;4.886;2023-03-23T00:02:27;100315.84;;;8.08;74.35
1480;BME280;732;51.698;4.886;2023-03-23T00:04:55;100357.53;;;8.18;74.45
1480;BME280;732;51.698;4.886;2023-03-23T00:07:23;100356.94;;;8.30;74.94
1480;BME280;732;51.698;4.886;2023-03-23T00:09:55;100360.56;;;8.38;74.51
1480;BME280;732;51.698;4.886;2023-03-23T00:12:24;100322.97;;;8.16;74.53
1480;BME280;732;51.698;4.886;2023-03-23T00:14:55;100350.78;;;8.30;74.83
1480;BME280;732;51.698;4.886;2023-03-23T00:17:22;100311.75;;;8.21;74.61
1480;BME280;732;51.698;4.886;2023-03-23T00:19:50;100343.50;;;8.39;74.70
1480;BME280;732;51.698;4.886;2023-03-23T00:22:19;100308.41;;;8.04;74.55
1480;BME280;732;51.698;4.886;2023-03-23T00:24:51;100318.94;;;7.97;74.87
1480;BME280;732;51.698;4.886;2023-03-23T00:27:19;100338.19;;;8.16;75.49
1480;BME280;732;51.698;4.886;2023-03-23T00:29:48;100279.22;;;7.94;75.32
1480;BME280;732;51.698;4.886;2023-03-23T00:32:21;100316.91;;;8.22;75.09
1480;BME280;732;51.698;4.886;2023-03-23T00:34:54;100271.03;;;7.95;75.13
1480;BME280;732;51.698;4.886;2023-03-23T00:37:24;100312.66;;;8.13;75.13
1480;BME280;732;51.698;4.886;2023-03-23T00:39:51;100317.09;;;8.21;75.02
1480;BME280;732;51.698;4.886;2023-03-23T00:42:23;100302.91;;;8.20;74.73
1480;BME280;732;51.698;4.886;2023-03-23T00:44:52;100302.00;;;8.28;74.91
1480;BME280;732;51.698;4.886;2023-03-23T00:47:26;100305.56;;;8.20;74.94
1480;BME280;732;51.698;4.886;2023-03-23T00:49:53;100282.97;;;8.08;74.71
1480;BME280;732;51.698;4.886;2023-03-23T00:52:23;100311.22;;;8.25;74.54
1480;BME280;732;51.698;4.886;2023-03-23T00:54:53;100310.72;;;8.22;74.73
1480;BME280;732;51.698;4.886;2023-03-23T00:57:20;100313.88;;;8.25;74.96
1480;BME280;732;51.698;4.886;2023-03-23T00:59:50;100306.53;;;8.27;74.37
1480;BME280;732;51.698;4.886;2023-03-23T01:02:18;100304.09;;;8.18;74.65
1480;BME280;732;51.698;4.886;2023-03-23T01:04:45;100302.19;;;8.03;74.71
1480;BME280;732;51.698;4.886;2023-03-23T01:07:18;100245.22;;;7.88;74.65
1480;BME280;732;51.698;4.886;2023-03-23T01:09:48;100287.22;;;8.17;74.89
1480;BME280;732;51.698;4.886;2023-03-23T01:12:19;100278.28;;;8.25;74.32
1480;BME280;732;51.698;4.886;2023-03-23T01:14:46;100259.84;;;7.92;74.99
1480;BME280;732;51.698;4.886;2023-03-23T01:17:14;100289.25;;;8.15;74.83
1480;BME280;732;51.698;4.886;2023-03-23T01:19:41;100248.78;;;8.03;74.70
1480;BME280;732;51.698;4.886;2023-03-23T01:22:09;100279.59;;;8.29;74.72
1480;BME280;732;51.698;4.886;2023-03-23T01:24:36;100286.16;;;8.26;74.36
1480;BME280;732;51.698;4.886;2023-03-23T01:27:05;100283.34;;;8.20;74.58
1480;BME280;732;51.698;4.886;2023-03-23T01:29:33;100273.75;;;8.10;74.65
1480;BME280;732;51.698;4.886;2023-03-23T01:32:01;100261.31;;;8.03;74.83
1480;BME280;732;51.698;4.886;2023-03-23T01:34:28;100247.84;;;8.11;75.10
1480;BME280;732;51.698;4.886;2023-03-23T01:36:56;100252.94;;;8.21;74.45
1480;BME280;732;51.698;4.886;2023-03-23T01:39:23;100253.41;;;8.24;74.81
1480;BME280;732;51.698;4.886;2023-03-23T01:41:51;100230.34;;;8.08;74.77
1480;BME280;732;51.698;4.886;2023-03-23T01:45:20;100264.31;;;8.38;74.47
1480;BME280;732;51.698;4.886;2023-03-23T01:47:52;100254.44;;;8.38;74.15
1480;BME280;732;51.698;4.886;2023-03-23T01:50:23;100263.19;;;8.32;74.25
1480;BME280;732;51.698;4.886;2023-03-23T01:52:52;100265.25;;;8.30;74.59
1480;BME280;732;51.698;4.886;2023-03-23T01:55:21;100215.91;;;8.03;74.14
1480;BME280;732;51.698;4.886;2023-03-23T01:57:49;100258.88;;;8.46;73.99
1480;BME280;732;51.698;4.886;2023-03-23T02:00:21;100217.84;;;8.24;73.75
1480;BME280;732;51.698;4.886;2023-03-23T02:02:56;100209.91;;;8.16;74.31
1480;BME280;732;51.698;4.886;2023-03-23T02:05:30;100254.44;;;8.53;73.92
1480;BME280;732;51.698;4.886;2023-03-23T02:08:04;100226.16;;;8.29;74.04
1480;BME280;732;51.698;4.886;2023-03-23T02:10:35;100227.81;;;8.15;73.93
1480;BME280;732;51.698;4.886;2023-03-23T02:13:06;100256.31;;;8.38;73.85
1480;BME280;732;51.698;4.886;2023-03-23T02:15:45;100239.78;;;8.34;73.81
1480;BME280;732;51.698;4.886;2023-03-23T02:18:40;100270.88;;;8.50;73.52
1480;BME280;732;51.698;4.886;2023-03-23T02:21:58;100218.13;;;8.29;73.47
1480;BME280;732;51.698;4.886;2023-03-23T02:25:02;100235.94;;;8.52;73.03
1480;BME280;732;51.698;4.886;2023-03-23T02:31:19;100258.53;;;8.64;73.04
1480;BME280;732;51.698;4.886;2023-03-23T02:33:54;100242.28;;;8.66;72.87
1480;BME280;732;51.698;4.886;2023-03-23T02:36:29;100206.25;;;8.32;72.76
1480;BME280;732;51.698;4.886;2023-03-23T02:39:05;100244.22;;;8.57;72.79
1480;BME280;732;51.698;4.886;2023-03-23T02:41:40;100237.47;;;8.46;72.98
1480;BME280;732;51.698;4.886;2023-03-23T02:44:11;100227.63;;;8.46;72.67
1480;BME280;732;51.698;4.886;2023-03-23T02:46:40;100236.59;;;8.54;72.93
1480;BME280;732;51.698;4.886;2023-03-23T02:49:12;100247.28;;;8.54;72.98
1480;BME280;732;51.698;4.886;2023-03-23T02:51:40;100239.53;;;8.59;72.89
1480;BME280;732;51.698;4.886;2023-03-23T02:54:09;100249.09;;;8.68;72.68
1480;BME280;732;51.698;4.886;2023-03-23T02:56:39;100238.41;;;8.53;73.05
1480;BME280;732;51.698;4.886;2023-03-23T02:59:15;100220.72;;;8.52;72.71
1480;BME280;732;51.698;4.886;2023-03-23T03:02:10;100249.22;;;8.60;73.14
1480;BME280;732;51.698;4.886;2023-03-23T03:04:43;100253.84;;;8.66;73.07
1480;BME280;732;51.698;4.886;2023-03-23T03:07:36;100226.63;;;8.48;73.04
1480;BME280;732;51.698;4.886;2023-03-23T03:10:19;100215.94;;;8.48;73.11
1480;BME280;732;51.698;4.886;2023-03-23T03:12:59;100207.34;;;8.52;72.59
1480;BME280;732;51.698;4.886;2023-03-23T03:15:34;100243.75;;;8.68;72.71
1480;BME280;732;51.698;4.886;2023-03-23T03:18:10;100212.69;;;8.37;72.81
1480;BME280;732;51.698;4.886;2023-03-23T03:20:45;100183.19;;;8.16;72.50
1480;BME280;732;51.698;4.886;2023-03-23T03:23:16;100252.72;;;8.60;72.72
1480;BME280;732;51.698;4.886;2023-03-23T03:25:46;100205.97;;;8.41;72.24
1480;BME280;732;51.698;4.886;2023-03-23T03:28:21;100240.63;;;8.65;71.81
1480;BME280;732;51.698;4.886;2023-03-23T03:30:54;100175.56;;;8.27;71.62
1480;BME280;732;51.698;4.886;2023-03-23T03:33:24;100240.63;;;8.65;71.66
1480;BME280;732;51.698;4.886;2023-03-23T03:35:57;100204.41;;;8.47;71.74
1480;BME280;732;51.698;4.886;2023-03-23T03:38:27;100219.53;;;8.55;71.31
1480;BME280;732;51.698;4.886;2023-03-23T03:40:56;100231.50;;;8.59;71.34
1480;BME280;732;51.698;4.886;2023-03-23T03:43:23;100183.84;;;8.33;71.34
1480;BME280;732;51.698;4.886;2023-03-23T03:45:51;100227.34;;;8.71;71.20
1480;BME280;732;51.698;4.886;2023-03-23T03:48:18;100244.88;;;8.59;71.28
1480;BME280;732;51.698;4.886;2023-03-23T03:50:47;100230.13;;;8.63;71.39
1480;BME280;732;51.698;4.886;2023-03-23T03:53:15;100240.16;;;8.61;71.30
1480;BME280;732;51.698;4.886;2023-03-23T03:55:43;100194.72;;;8.46;70.82
1480;BME280;732;51.698;4.886;2023-03-23T03:58:15;100223.28;;;8.60;70.56
1480;BME280;732;51.698;4.886;2023-03-23T04:01:16;100243.94;;;8.82;70.34
1480;BME280;732;51.698;4.886;2023-03-23T04:03:44;100229.38;;;8.54;70.33
1480;BME280;732;51.698;4.886;2023-03-23T04:06:17;100199.16;;;8.24;70.35
1480;BME280;732;51.698;4.886;2023-03-23T04:08:46;100262.41;;;8.61;69.66
1480;BME280;732;51.698;4.886;2023-03-23T04:11:14;100235.38;;;8.41;69.90
1480;BME280;732;51.698;4.886;2023-03-23T04:13:42;100260.94;;;8.59;70.16
1480;BME280;732;51.698;4.886;2023-03-23T04:16:24;100273.91;;;8.62;70.27
1480;BME280;732;51.698;4.886;2023-03-23T04:18:53;100269.31;;;8.56;69.98
1480;BME280;732;51.698;4.886;2023-03-23T04:21:24;100196.56;;;8.16;69.78
1480;BME280;732;51.698;4.886;2023-03-23T04:23:56;100217.41;;;8.35;69.91
1480;BME280;732;51.698;4.886;2023-03-23T04:26:27;100277.44;;;8.62;69.56
1480;BME280;732;51.698;4.886;2023-03-23T04:29:00;100275.50;;;8.56;69.64
1480;BME280;732;51.698;4.886;2023-03-23T04:31:53;100269.22;;;8.64;69.82
1480;BME280;732;51.698;4.886;2023-03-23T04:34:30;100255.31;;;8.69;69.65
1480;BME280;732;51.698;4.886;2023-03-23T04:37:00;100251.16;;;8.51;69.75
1480;BME280;732;51.698;4.886;2023-03-23T04:39:31;100267.00;;;8.53;70.01
1480;BME280;732;51.698;4.886;2023-03-23T04:42:02;100266.81;;;8.54;70.21
1480;BME280;732;51.698;4.886;2023-03-23T04:44:47;100250.13;;;8.52;70.21
1480;BME280;732;51.698;4.886;2023-03-23T04:47:26;100247.81;;;8.34;69.95
1480;BME280;732;51.698;4.886;2023-03-23T04:49:58;100215.31;;;8.07;69.99
1480;BME280;732;51.698;4.886;2023-03-23T04:52:35;100252.91;;;8.44;70.06
1480;BME280;732;51.698;4.886;2023-03-23T04:55:08;100240.78;;;8.18;70.44
1480;BME280;732;51.698;4.886;2023-03-23T04:57:38;100256.84;;;8.33;69.81
1480;BME280;732;51.698;4.886;2023-03-23T05:00:38;100254.44;;;8.38;69.99
1480;BME280;732;51.698;4.886;2023-03-23T05:03:06;100210.09;;;8.14;70.10
1480;BME280;732;51.698;4.886;2023-03-23T05:05:34;100263.06;;;8.49;70.02
1480;BME280;732;51.698;4.886;2023-03-23T05:08:06;100277.44;;;8.48;70.03
1480;BME280;732;51.698;4.886;2023-03-23T05:10:38;100266.63;;;8.41;70.44
1480;BME280;732;51.698;4.886;2023-03-23T05:13:09;100227.88;;;8.22;70.48
1480;BME280;732;51.698;4.886;2023-03-23T05:15:37;100245.41;;;8.24;70.50
1480;BME280;732;51.698;4.886;2023-03-23T05:18:05;100195.53;;;8.02;70.88
1480;BME280;732;51.698;4.886;2023-03-23T05:20:33;100222.81;;;8.12;70.77
1480;BME280;732;51.698;4.886;2023-03-23T05:23:04;100227.22;;;8.20;70.63
1480;BME280;732;51.698;4.886;2023-03-23T05:25:34;100228.25;;;8.04;71.15
1480;BME280;732;51.698;4.886;2023-03-23T05:28:11;100233.03;;;8.08;71.26
1480;BME280;732;51.698;4.886;2023-03-23T05:30:48;100272.13;;;8.24;71.21
1480;BME280;732;51.698;4.886;2023-03-23T05:33:17;100254.34;;;8.17;71.32
1480;BME280;732;51.698;4.886;2023-03-23T05:36:04;100286.72;;;8.37;71.41
1480;BME280;732;51.698;4.886;2023-03-23T05:38:46;100299.53;;;8.41;70.84
1480;BME280;732;51.698;4.886;2023-03-23T05:41:17;100308.09;;;8.37;71.31
1480;BME280;732;51.698;4.886;2023-03-23T05:43:46;100275.38;;;8.35;71.08
1480;BME280;732;51.698;4.886;2023-03-23T05:46:37;100311.53;;;8.45;71.23
1480;BME280;732;51.698;4.886;2023-03-23T05:49:05;100288.25;;;8.31;71.20
1480;BME280;732;51.698;4.886;2023-03-23T05:51:38;100307.66;;;8.48;70.99
1480;BME280;732;51.698;4.886;2023-03-23T05:54:06;100284.75;;;8.30;71.07
1480;BME280;732;51.698;4.886;2023-03-23T05:56:34;100293.72;;;8.38;71.31
1480;BME280;732;51.698;4.886;2023-03-23T05:59:13;100294.25;;;8.33;71.07
1480;BME280;732;51.698;4.886;2023-03-23T06:01:44;100319.91;;;8.42;71.28
1480;BME280;732;51.698;4.886;2023-03-23T06:04:11;100263.97;;;8.03;71.89
1480;BME280;732;51.698;4.886;2023-03-23T06:06:50;100304.84;;;8.26;72.35
1480;BME280;732;51.698;4.886;2023-03-23T06:09:18;100325.09;;;8.21;73.20
1480;BME280;732;51.698;4.886;2023-03-23T06:12:06;100335.16;;;8.19;73.75
1480;BME280;732;51.698;4.886;2023-03-23T06:14:44;100323.53;;;8.11;74.28
1480;BME280;732;51.698;4.886;2023-03-23T06:17:14;100337.31;;;8.00;74.57
1480;BME280;732;51.698;4.886;2023-03-23T06:19:43;100334.97;;;7.97;74.60
1480;BME280;732;51.698;4.886;2023-03-23T06:22:15;100351.19;;;7.87;74.96
1480;BME280;732;51.698;4.886;2023-03-23T06:24:45;100322.88;;;7.55;75.16
1480;BME280;732;51.698;4.886;2023-03-23T06:27:16;100364.75;;;7.86;75.23
1480;BME280;732;51.698;4.886;2023-03-23T06:29:46;100363.66;;;7.72;75.72
1480;BME280;732;51.698;4.886;2023-03-23T06:32:15;100366.09;;;7.81;76.10
1480;BME280;732;51.698;4.886;2023-03-23T06:34:44;100334.84;;;7.59;76.18
1480;BME280;732;51.698;4.886;2023-03-23T06:37:47;100370.38;;;7.68;76.69
1480;BME280;732;51.698;4.886;2023-03-23T06:40:20;100356.06;;;7.60;76.92
1480;BME280;732;51.698;4.886;2023-03-23T06:42:54;100379.56;;;7.88;76.31
1480;BME280;732;51.698;4.886;2023-03-23T06:45:32;100388.44;;;7.89;76.49
1480;BME280;732;51.698;4.886;2023-03-23T06:48:26;100380.28;;;7.82;76.63
1480;BME280;732;51.698;4.886;2023-03-23T06:50:53;100378.13;;;7.77;76.79
1480;BME280;732;51.698;4.886;2023-03-23T06:53:24;100364.88;;;7.61;77.75
1480;BME280;732;51.698;4.886;2023-03-23T06:55:54;100396.53;;;7.72;78.32
1480;BME280;732;51.698;4.886;2023-03-23T06:58:22;100375.66;;;7.76;77.86
1480;BME280;732;51.698;4.886;2023-03-23T07:00:54;100355.28;;;7.43;78.04
1480;BME280;732;51.698;4.886;2023-03-23T07:03:38;100394.53;;;7.74;77.89
1480;BME280;732;51.698;4.886;2023-03-23T07:06:09;100365.75;;;7.53;77.26
1480;BME280;732;51.698;4.886;2023-03-23T07:08:45;100405.69;;;7.78;77.60
1480;BME280;732;51.698;4.886;2023-03-23T07:11:17;100399.28;;;7.87;77.10
1480;BME280;732;51.698;4.886;2023-03-23T07:13:44;100369.34;;;7.69;77.01
1480;BME280;732;51.698;4.886;2023-03-23T07:16:14;100385.28;;;7.85;76.97
1480;BME280;732;51.698;4.886;2023-03-23T07:18:42;100375.66;;;7.76;77.32
1480;BME280;732;51.698;4.886;2023-03-23T07:21:10;100391.66;;;7.76;77.54
1480;BME280;732;51.698;4.886;2023-03-23T07:23:39;100415.41;;;8.02;77.41
1480;BME280;732;51.698;4.886;2023-03-23T07:26:10;100400.59;;;7.91;77.56
1480;BME280;732;51.698;4.886;2023-03-23T07:28:48;100414.41;;;7.63;78.37
1480;BME280;732;51.698;4.886;2023-03-23T07:31:41;100383.53;;;7.29;79.02
1480;BME280;732;51.698;4.886;2023-03-23T07:34:09;100405.19;;;7.43;79.05
1480;BME280;732;51.698;4.886;2023-03-23T07:36:57;100346.75;;;7.08;79.10
1480;BME280;732;51.698;4.886;2023-03-23T07:39:27;100392.69;;;7.35;78.53
1480;BME280;732;51.698;4.886;2023-03-23T07:41:57;100416.47;;;7.53;78.69
1480;BME280;732;51.698;4.886;2023-03-23T07:44:40;100409.97;;;7.56;78.75
1480;BME280;732;51.698;4.886;2023-03-23T07:47:12;100436.84;;;7.54;78.45
1480;BME280;732;51.698;4.886;2023-03-23T07:49:39;100438.16;;;7.58;78.17
1480;BME280;732;51.698;4.886;2023-03-23T07:52:16;100386.88;;;7.31;77.70
1480;BME280;732;51.698;4.886;2023-03-23T07:54:44;100432.81;;;7.50;78.09
1480;BME280;732;51.698;4.886;2023-03-23T07:57:30;100415.75;;;7.20;78.41
1480;BME280;732;51.698;4.886;2023-03-23T08:00:00;100440.88;;;7.42;78.91
1480;BME280;732;51.698;4.886;2023-03-23T08:02:45;100436.38;;;7.42;78.58
1480;BME280;732;51.698;4.886;2023-03-23T08:05:24;100427.03;;;7.46;78.08
1480;BME280;732;51.698;4.886;2023-03-23T08:08:18;100440.59;;;7.68;77.53
1480;BME280;732;51.698;4.886;2023-03-23T08:11:04;100437.53;;;7.48;77.27
1480;BME280;732;51.698;4.886;2023-03-23T08:13:47;100452.00;;;7.54;77.30
1480;BME280;732;51.698;4.886;2023-03-23T08:16:33;100441.63;;;7.59;76.87
1480;BME280;732;51.698;4.886;2023-03-23T08:19:24;100444.00;;;7.54;76.56
1480;BME280;732;51.698;4.886;2023-03-23T08:22:27;100404.81;;;7.46;76.95
1480;BME280;732;51.698;4.886;2023-03-23T08:25:15;100440.78;;;7.67;76.08
1480;BME280;732;51.698;4.886;2023-03-23T08:28:22;100452.66;;;7.64;75.95
1480;BME280;732;51.698;4.886;2023-03-23T08:30:59;100401.66;;;7.42;75.81
1480;BME280;732;51.698;4.886;2023-03-23T08:33:40;100436.94;;;7.69;74.84
1480;BME280;732;51.698;4.886;2023-03-23T08:36:25;100455.94;;;8.14;74.76
1480;BME280;732;51.698;4.886;2023-03-23T08:39:12;100472.56;;;7.93;73.94
1480;BME280;732;51.698;4.886;2023-03-23T08:41:58;100465.31;;;7.70;74.73
1480;BME280;732;51.698;4.886;2023-03-23T08:44:54;100468.94;;;7.77;75.17
1480;BME280;732;51.698;4.886;2023-03-23T08:47:40;100479.72;;;7.92;74.29
1480;BME280;732;51.698;4.886;2023-03-23T08:50:28;100470.09;;;7.83;73.93
1480;BME280;732;51.698;4.886;2023-03-23T08:53:01;100425.78;;;7.57;74.04
1480;BME280;732;51.698;4.886;2023-03-23T08:55:46;100482.38;;;8.01;74.08
1480;BME280;732;51.698;4.886;2023-03-23T08:58:39;100439.41;;;8.10;73.06
1480;BME280;732;51.698;4.886;2023-03-23T09:01:21;100468.78;;;8.42;73.11
1480;BME280;732;51.698;4.886;2023-03-23T09:04:00;100471.22;;;8.75;73.10
1480;BME280;732;51.698;4.886;2023-03-23T09:06:39;100471.53;;;8.95;71.53
1480;BME280;732;51.698;4.886;2023-03-23T09:09:08;100444.50;;;8.90;69.79
1480;BME280;732;51.698;4.886;2023-03-23T09:11:36;100470.00;;;9.16;69.81
1480;BME280;732;51.698;4.886;2023-03-23T09:14:05;100465.94;;;9.20;70.05
1480;BME280;732;51.698;4.886;2023-03-23T09:16:33;100410.63;;;9.12;69.37
1480;BME280;732;51.698;4.886;2023-03-23T09:19:01;100436.63;;;9.41;68.08
1480;BME280;732;51.698;4.886;2023-03-23T09:21:30;100484.09;;;9.63;67.47
1480;BME280;732;51.698;4.886;2023-03-23T09:23:57;100471.13;;;9.81;68.55
1480;BME280;732;51.698;4.886;2023-03-23T09:26:26;100485.25;;;9.90;66.90
1480;BME280;732;51.698;4.886;2023-03-23T09:28:54;100456.47;;;9.62;66.53
1480;BME280;732;51.698;4.886;2023-03-23T09:31:22;100473.28;;;9.71;68.28
1480;BME280;732;51.698;4.886;2023-03-23T09:33:52;100451.84;;;9.71;68.00
1480;BME280;732;51.698;4.886;2023-03-23T09:36:22;100451.06;;;9.92;67.19
1480;BME280;732;51.698;4.886;2023-03-23T09:38:52;100452.81;;;10.00;65.34
1480;BME280;732;51.698;4.886;2023-03-23T09:41:44;100493.69;;;10.23;64.77
1480;BME280;732;51.698;4.886;2023-03-23T09:44:22;100464.91;;;10.11;65.16
1480;BME280;732;51.698;4.886;2023-03-23T09:47:00;100497.50;;;10.72;65.54
1480;BME280;732;51.698;4.886;2023-03-23T09:49:33;100494.34;;;11.12;63.17
1480;BME280;732;51.698;4.886;2023-03-23T09:52:08;100482.00;;;11.18;61.16
1480;BME280;732;51.698;4.886;2023-03-23T09:54:38;100484.81;;;11.10;61.59
1480;BME280;732;51.698;4.886;2023-03-23T09:57:22;100499.66;;;11.06;61.50
1480;BME280;732;51.698;4.886;2023-03-23T09:59:57;100483.28;;;10.72;60.37
1480;BME280;732;51.698;4.886;2023-03-23T10:02:31;100508.25;;;10.94;59.87
1480;BME280;732;51.698;4.886;2023-03-23T10:05:22;100490.84;;;10.90;59.90
1480;BME280;732;51.698;4.886;2023-03-23T10:07:52;100492.91;;;10.66;59.99
1480;BME280;732;51.698;4.886;2023-03-23T10:10:21;100512.41;;;10.97;60.28
1480;BME280;732;51.698;4.886;2023-03-23T10:12:59;100486.16;;;10.70;59.10
1480;BME280;732;51.698;4.886;2023-03-23T10:15:33;100502.63;;;10.67;60.58
1480;BME280;732;51.698;4.886;2023-03-23T10:18:04;100494.75;;;10.87;61.14
1480;BME280;732;51.698;4.886;2023-03-23T10:20:45;100486.84;;;11.36;58.64
1480;BME280;732;51.698;4.886;2023-03-23T10:23:43;100512.94;;;11.42;58.03
1480;BME280;732;51.698;4.886;2023-03-23T10:26:26;100519.72;;;11.38;58.17
1480;BME280;732;51.698;4.886;2023-03-23T10:29:01;100483.22;;;11.50;57.51
1480;BME280;732;51.698;4.886;2023-03-23T10:31:40;100521.53;;;11.59;56.36
1480;BME280;732;51.698;4.886;2023-03-23T10:34:13;100499.47;;;11.35;56.39
1480;BME280;732;51.698;4.886;2023-03-23T10:37:01;100504.66;;;11.44;56.38
1480;BME280;732;51.698;4.886;2023-03-23T10:39:34;100520.41;;;11.47;56.01
1480;BME280;732;51.698;4.886;2023-03-23T10:42:06;100473.34;;;10.94;56.83
1480;BME280;732;51.698;4.886;2023-03-23T10:44:35;100512.28;;;10.83;57.79
1480;BME280;732;51.698;4.886;2023-03-23T10:47:06;100515.72;;;10.77;59.05
1480;BME280;732;51.698;4.886;2023-03-23T10:49:50;100515.06;;;10.75;59.56
1480;BME280;732;51.698;4.886;2023-03-23T10:52:29;100511.31;;;10.91;59.84
1480;BME280;732;51.698;4.886;2023-03-23T10:55:02;100484.28;;;10.49;59.48
1480;BME280;732;51.698;4.886;2023-03-23T10:57:33;100507.06;;;10.60;59.76
1480;BME280;732;51.698;4.886;2023-03-23T11:00:06;100491.38;;;10.57;59.70
1480;BME280;732;51.698;4.886;2023-03-23T11:02:41;100488.94;;;10.62;59.42
1480;BME280;732;51.698;4.886;2023-03-23T11:05:18;100437.50;;;10.59;58.14
1480;BME280;732;51.698;4.886;2023-03-23T11:07:53;100504.50;;;11.17;58.75
1480;BME280;732;51.698;4.886;2023-03-23T11:10:25;100514.25;;;11.25;58.71
1480;BME280;732;51.698;4.886;2023-03-23T11:12:57;100520.63;;;11.52;57.57
1480;BME280;732;51.698;4.886;2023-03-23T11:15:31;100505.19;;;11.61;56.79
1480;BME280;732;51.698;4.886;2023-03-23T11:18:03;100451.59;;;10.89;55.93
1480;BME280;732;51.698;4.886;2023-03-23T11:20:35;100519.28;;;11.34;57.80
1480;BME280;732;51.698;4.886;2023-03-23T11:23:18;100488.38;;;11.45;56.54
1480;BME280;732;51.698;4.886;2023-03-23T11:26:00;100489.84;;;11.55;57.37
1480;BME280;732;51.698;4.886;2023-03-23T11:28:33;100498.25;;;12.15;55.99
1480;BME280;732;51.698;4.886;2023-03-23T11:31:05;100491.16;;;12.07;55.61
1480;BME280;732;51.698;4.886;2023-03-23T11:33:41;100507.41;;;12.34;55.66
1480;BME280;732;51.698;4.886;2023-03-23T11:36:13;100499.34;;;12.61;54.87
1480;BME280;732;51.698;4.886;2023-03-23T11:38:43;100508.59;;;12.18;54.71
1480;BME280;732;51.698;4.886;2023-03-23T11:41:17;100515.03;;;12.30;55.88
1480;BME280;732;51.698;4.886;2023-03-23T11:43:46;100517.50;;;12.32;55.06
1480;BME280;732;51.698;4.886;2023-03-23T11:46:29;100488.53;;;11.37;56.80
1480;BME280;732;51.698;4.886;2023-03-23T11:49:02;100532.47;;;11.29;58.81
1480;BME280;732;51.698;4.886;2023-03-23T11:51:37;100538.09;;;10.84;62.40
1480;BME280;732;51.698;4.886;2023-03-23T11:54:12;100544.84;;;10.07;67.96
1480;BME280;732;51.698;4.886;2023-03-23T11:56:44;100473.41;;;9.24;68.35
1480;BME280;732;51.698;4.886;2023-03-23T11:59:14;100532.50;;;9.23;69.61
1480;BME280;732;51.698;4.886;2023-03-23T12:01:54;100495.38;;;8.82;71.24
1480;BME280;732;51.698;4.886;2023-03-23T12:04:49;100509.00;;;8.72;72.67
1480;BME280;732;51.698;4.886;2023-03-23T12:07:39;100535.28;;;8.68;73.05
1480;BME280;732;51.698;4.886;2023-03-23T12:10:25;100520.78;;;8.31;74.77
1480;BME280;732;51.698;4.886;2023-03-23T12:13:08;100551.81;;;8.49;76.03
1480;BME280;732;51.698;4.886;2023-03-23T12:15:48;100546.97;;;8.67;75.12
1480;BME280;732;51.698;4.886;2023-03-23T12:18:32;100549.59;;;8.75;77.27
1480;BME280;732;51.698;4.886;2023-03-23T12:21:14;100541.75;;;8.74;78.78
1480;BME280;732;51.698;4.886;2023-03-23T12:23:58;100529.34;;;8.81;76.63
1480;BME280;732;51.698;4.886;2023-03-23T12:26:29;100490.47;;;8.70;77.17
1480;BME280;732;51.698;4.886;2023-03-23T12:29:29;100519.47;;;9.05;75.80
1480;BME280;732;51.698;4.886;2023-03-23T12:32:28;100510.31;;;9.37;75.74
1480;BME280;732;51.698;4.886;2023-03-23T12:35:11;100501.56;;;9.58;75.02
1480;BME280;732;51.698;4.886;2023-03-23T12:37:51;100477.59;;;9.57;75.30
1480;BME280;732;51.698;4.886;2023-03-23T12:40:37;100433.41;;;9.46;75.38
1480;BME280;732;51.698;4.886;2023-03-23T12:43:18;100456.44;;;9.92;77.94
1480;BME280;732;51.698;4.886;2023-03-23T12:49:07;100468.28;;;10.63;75.89
1480;BME280;732;51.698;4.886;2023-03-23T12:51:43;100476.66;;;10.96;72.47
1480;BME280;732;51.698;4.886;2023-03-23T12:54:18;100482.47;;;11.28;70.27
1480;BME280;732;51.698;4.886;2023-03-23T12:56:52;100489.44;;;11.51;68.33
1480;BME280;732;51.698;4.886;2023-03-23T12:59:29;100477.34;;;11.33;67.04
1480;BME280;732;51.698;4.886;2023-03-23T13:02:05;100517.72;;;11.47;65.16
1480;BME280;732;51.698;4.886;2023-03-23T13:04:39;100478.91;;;11.21;65.87
1480;BME280;732;51.698;4.886;2023-03-23T13:07:16;100510.81;;;11.37;64.61
1480;BME280;732;51.698;4.886;2023-03-23T13:09:52;100516.69;;;10.91;64.27
1480;BME280;732;51.698;4.886;2023-03-23T13:12:23;100514.66;;;10.56;65.81
1480;BME280;732;51.698;4.886;2023-03-23T13:15:02;100517.44;;;10.27;65.70
1480;BME280;732;51.698;4.886;2023-03-23T13:17:40;100548.16;;;10.09;66.32
1480;BME280;732;51.698;4.886;2023-03-23T13:20:35;100515.03;;;9.27;69.59
1480;BME280;732;51.698;4.886;2023-03-23T13:23:11;100533.59;;;8.90;73.42
1480;BME280;732;51.698;4.886;2023-03-23T13:26:02;100511.31;;;8.52;73.73
1480;BME280;732;51.698;4.886;2023-03-23T13:28:47;100551.81;;;8.95;74.89
1480;BME280;732;51.698;4.886;2023-03-23T13:31:17;100519.97;;;9.23;75.41
1480;BME280;732;51.698;4.886;2023-03-23T13:33:52;100514.75;;;9.60;72.16
1480;BME280;732;51.698;4.886;2023-03-23T13:36:29;100547.69;;;10.20;74.47
1480;BME280;732;51.698;4.886;2023-03-23T13:39:01;100463.50;;;10.15;71.22
1480;BME280;732;51.698;4.886;2023-03-23T13:41:30;100519.81;;;10.73;70.13
1480;BME280;732;51.698;4.886;2023-03-23T13:44:19;100479.16;;;10.54;67.26
1480;BME280;732;51.698;4.886;2023-03-23T13:47:14;100490.13;;;10.38;65.90
1480;BME280;732;51.698;4.886;2023-03-23T13:49:50;100512.38;;;10.32;67.47
1480;BME280;732;51.698;4.886;2023-03-23T13:52:24;100476.13;;;10.21;67.23
1480;BME280;732;51.698;4.886;2023-03-23T13:55:21;100488.66;;;10.72;66.63
1480;BME280;732;51.698;4.886;2023-03-23T13:57:51;100485.44;;;10.83;65.49
1480;BME280;732;51.698;4.886;2023-03-23T14:00:37;100455.88;;;10.77;65.09
1480;BME280;732;51.698;4.886;2023-03-23T14:03:16;100492.44;;;11.06;64.25
1480;BME280;732;51.698;4.886;2023-03-23T14:05:48;100481.88;;;11.04;63.51
1480;BME280;732;51.698;4.886;2023-03-23T14:08:25;100488.59;;;11.15;63.66
1480;BME280;732;51.698;4.886;2023-03-23T14:11:14;100476.22;;;11.21;62.75
1480;BME280;732;51.698;4.886;2023-03-23T14:13:48;100500.00;;;11.24;61.72
1480;BME280;732;51.698;4.886;2023-03-23T14:16:20;100456.75;;;11.12;63.28
1480;BME280;732;51.698;4.886;2023-03-23T14:18:55;100504.63;;;11.72;63.03
1480;BME280;732;51.698;4.886;2023-03-23T14:21:32;100494.69;;;11.66;61.84
1480;BME280;732;51.698;4.886;2023-03-23T14:24:02;100436.72;;;11.50;61.40